UAL1717 KMEM-KMCO
Flight info
| Callsign | UAL1717 |
|---|---|
| Flight time | N/A |
| Altitude | 37000 |
| Route | BBKNG7 KERMI VLKNN DEEDA GRNCH5 |
| Aircraft | A320/M-SDE3FGHIRWY/LB1 |
Departure
| Time | 2026-05-05 01:50 |
|---|---|
| Airport | Memphis International Airport (KMEM) |
Arrival
| Time | N/A |
|---|---|
| Airport | Orlando International Airport (KMCO) |
| Time | Latitude | Longitude | Altitude | Speed | Heading |
|---|---|---|---|---|---|
| 2026-05-05 01:22 | 35.04530 | -89.98408 | 302 ft | 0 kts | 90° |
| 2026-05-05 01:44 | 35.04530 | -89.98428 | 302 ft | 2 kts | 90° |
| 2026-05-05 01:44 | 35.04530 | -89.98448 | 301 ft | 2 kts | 90° |
| 2026-05-05 01:45 | 35.04530 | -89.98468 | 301 ft | 2 kts | 90° |
| 2026-05-05 01:45 | 35.04528 | -89.98489 | 301 ft | 2 kts | 61° |
| 2026-05-05 01:45 | 35.04518 | -89.98505 | 302 ft | 2 kts | 27° |
| 2026-05-05 01:45 | 35.04509 | -89.98510 | 301 ft | 0 kts | 9° |
| 2026-05-05 01:46 | 35.04515 | -89.98509 | 301 ft | 4 kts | 7° |
| 2026-05-05 01:47 | 35.04588 | -89.98508 | 302 ft | 16 kts | 359° |
| 2026-05-05 01:47 | 35.04726 | -89.98510 | 303 ft | 24 kts | 359° |
| 2026-05-05 01:47 | 35.04923 | -89.98515 | 302 ft | 32 kts | 0° |
| 2026-05-05 01:47 | 35.05080 | -89.98514 | 301 ft | 9 kts | 353° |
| 2026-05-05 01:48 | 35.05091 | -89.98528 | 299 ft | 6 kts | 284° |
| 2026-05-05 01:48 | 35.05036 | -89.98574 | 300 ft | 12 kts | 203° |
| 2026-05-05 01:48 | 35.04974 | -89.98617 | 302 ft | 16 kts | 214° |
| 2026-05-05 01:48 | 35.04895 | -89.98736 | 303 ft | 19 kts | 193° |
| 2026-05-05 01:49 | 35.04865 | -89.98741 | 303 ft | 0 kts | 184° |
| 2026-05-05 01:49 | 35.04864 | -89.98742 | 303 ft | 0 kts | 184° |
| 2026-05-05 01:49 | 35.04855 | -89.98742 | 303 ft | 9 kts | 183° |
| 2026-05-05 01:50 | 35.04673 | -89.98740 | 302 ft | 42 kts | 179° |
| 2026-05-05 01:50 | 35.04140 | -89.98728 | 306 ft | 114 kts | 179° |
| 2026-05-05 01:50 | 35.03159 | -89.98710 | 551 ft | 150 kts | 179° |
| 2026-05-05 01:50 | 35.02123 | -89.98678 | 1362 ft | 150 kts | 181° |
| 2026-05-05 01:51 | 35.01067 | -89.98625 | 2133 ft | 153 kts | 180° |
| 2026-05-05 01:51 | 34.99954 | -89.98571 | 2472 ft | 170 kts | 182° |
| 2026-05-05 01:51 | 34.98711 | -89.98457 | 2681 ft | 195 kts | 170° |
| 2026-05-05 01:51 | 34.97385 | -89.97712 | 2965 ft | 225 kts | 155° |
| 2026-05-05 01:52 | 34.95953 | -89.96726 | 3428 ft | 245 kts | 155° |
| 2026-05-05 01:52 | 34.94453 | -89.95678 | 4212 ft | 253 kts | 151° |
| 2026-05-05 01:52 | 34.93252 | -89.94032 | 4978 ft | 273 kts | 118° |
| 2026-05-05 01:52 | 34.92859 | -89.91719 | 5754 ft | 286 kts | 97° |
| 2026-05-05 01:53 | 34.92730 | -89.89271 | 6548 ft | 292 kts | 95° |
| 2026-05-05 01:53 | 34.92630 | -89.86775 | 7302 ft | 298 kts | 94° |
| 2026-05-05 01:53 | 34.92535 | -89.84236 | 8089 ft | 302 kts | 94° |
| 2026-05-05 01:53 | 34.92433 | -89.81668 | 8884 ft | 306 kts | 94° |
| 2026-05-05 01:54 | 34.92321 | -89.79061 | 9660 ft | 310 kts | 94° |
| 2026-05-05 01:54 | 34.92202 | -89.76414 | 10279 ft | 320 kts | 94° |
| 2026-05-05 01:54 | 34.92069 | -89.73611 | 10479 ft | 343 kts | 94° |
| 2026-05-05 01:54 | 34.91924 | -89.70648 | 10874 ft | 356 kts | 94° |
| 2026-05-05 01:55 | 34.91776 | -89.67612 | 11515 ft | 361 kts | 93° |
| 2026-05-05 01:55 | 34.91626 | -89.64537 | 12209 ft | 365 kts | 92° |
| 2026-05-05 01:55 | 34.91529 | -89.61427 | 12914 ft | 369 kts | 90° |
| 2026-05-05 01:55 | 34.91508 | -89.58285 | 13607 ft | 373 kts | 89° |
| 2026-05-05 01:56 | 34.91526 | -89.55115 | 14245 ft | 377 kts | 88° |
| 2026-05-05 01:56 | 34.91557 | -89.51898 | 14878 ft | 380 kts | 88° |
| 2026-05-05 01:56 | 34.91583 | -89.48707 | 15494 ft | 383 kts | 88° |
| 2026-05-05 01:56 | 34.91600 | -89.45444 | 16096 ft | 387 kts | 88° |
| 2026-05-05 01:57 | 34.91603 | -89.42154 | 16695 ft | 390 kts | 88° |
| 2026-05-05 01:57 | 34.91596 | -89.38830 | 17300 ft | 393 kts | 88° |
| 2026-05-05 01:57 | 34.91585 | -89.35490 | 17896 ft | 397 kts | 88° |
| 2026-05-05 01:57 | 34.91569 | -89.32108 | 18454 ft | 401 kts | 88° |
| 2026-05-05 01:58 | 34.91554 | -89.28698 | 18993 ft | 404 kts | 88° |
| 2026-05-05 01:58 | 34.91538 | -89.25259 | 19535 ft | 408 kts | 88° |
| 2026-05-05 01:58 | 34.91456 | -89.21772 | 20090 ft | 414 kts | 94° |
| 2026-05-05 01:58 | 34.90972 | -89.18299 | 20645 ft | 419 kts | 101° |
| 2026-05-05 01:59 | 34.90350 | -89.14820 | 21194 ft | 423 kts | 101° |
| 2026-05-05 01:59 | 34.89726 | -89.11293 | 21741 ft | 427 kts | 101° |
| 2026-05-05 01:59 | 34.89115 | -89.07726 | 22274 ft | 432 kts | 101° |
| 2026-05-05 01:59 | 34.88511 | -89.04124 | 22814 ft | 436 kts | 100° |
| 2026-05-05 02:00 | 34.87907 | -89.00489 | 23346 ft | 440 kts | 101° |
| 2026-05-05 02:00 | 34.87295 | -88.96823 | 23809 ft | 444 kts | 101° |
| 2026-05-05 02:00 | 34.86673 | -88.93119 | 24237 ft | 448 kts | 100° |
| 2026-05-05 02:00 | 34.86049 | -88.89428 | 24639 ft | 453 kts | 100° |
| 2026-05-05 02:01 | 34.85405 | -88.85661 | 25053 ft | 457 kts | 100° |
| 2026-05-05 02:01 | 34.84750 | -88.81863 | 25464 ft | 461 kts | 100° |
| 2026-05-05 02:01 | 34.84085 | -88.78027 | 25871 ft | 465 kts | 100° |
| 2026-05-05 02:01 | 34.83412 | -88.74157 | 26283 ft | 469 kts | 100° |
| 2026-05-05 02:02 | 34.82736 | -88.70266 | 26686 ft | 472 kts | 100° |
| 2026-05-05 02:02 | 34.82057 | -88.66331 | 27085 ft | 476 kts | 99° |
| 2026-05-05 02:02 | 34.81375 | -88.62365 | 27486 ft | 480 kts | 99° |
| 2026-05-05 02:02 | 34.80685 | -88.58380 | 27873 ft | 484 kts | 99° |
| 2026-05-05 02:03 | 34.79987 | -88.54362 | 28252 ft | 487 kts | 99° |
| 2026-05-05 02:03 | 34.79283 | -88.50295 | 28657 ft | 491 kts | 99° |
| 2026-05-05 02:03 | 34.78575 | -88.46221 | 29037 ft | 494 kts | 99° |
| 2026-05-05 02:03 | 34.77857 | -88.42118 | 29409 ft | 498 kts | 99° |
| 2026-05-05 02:04 | 34.77130 | -88.37982 | 29796 ft | 501 kts | 99° |
| 2026-05-05 02:04 | 34.76398 | -88.33826 | 30131 ft | 504 kts | 99° |
| 2026-05-05 02:04 | 34.75671 | -88.29700 | 30453 ft | 506 kts | 99° |
| 2026-05-05 02:04 | 34.74930 | -88.25507 | 30838 ft | 508 kts | 99° |
| 2026-05-05 02:05 | 34.74184 | -88.21305 | 31192 ft | 509 kts | 98° |
| 2026-05-05 02:05 | 34.73433 | -88.17084 | 31533 ft | 511 kts | 98° |
| 2026-05-05 02:05 | 34.72676 | -88.12860 | 31882 ft | 513 kts | 98° |
| 2026-05-05 02:05 | 34.71901 | -88.08615 | 32213 ft | 515 kts | 98° |
| 2026-05-05 02:06 | 34.71115 | -88.04362 | 32568 ft | 517 kts | 98° |
| 2026-05-05 02:06 | 34.70321 | -88.00102 | 32928 ft | 518 kts | 98° |
| 2026-05-05 02:06 | 34.69514 | -87.95819 | 33283 ft | 520 kts | 98° |
| 2026-05-05 02:06 | 34.68699 | -87.91527 | 33653 ft | 521 kts | 98° |
| 2026-05-05 02:07 | 34.67876 | -87.87231 | 34007 ft | 523 kts | 98° |
| 2026-05-05 02:07 | 34.67042 | -87.82923 | 34327 ft | 524 kts | 98° |
| 2026-05-05 02:07 | 34.66205 | -87.78614 | 34658 ft | 525 kts | 98° |
| 2026-05-05 02:07 | 34.65360 | -87.74294 | 34977 ft | 525 kts | 98° |
| 2026-05-05 02:08 | 34.64511 | -87.69967 | 35287 ft | 526 kts | 98° |
| 2026-05-05 02:08 | 34.63659 | -87.65647 | 35600 ft | 527 kts | 98° |
| 2026-05-05 02:08 | 34.62802 | -87.61318 | 35931 ft | 527 kts | 98° |
| 2026-05-05 02:08 | 34.61942 | -87.56992 | 36249 ft | 527 kts | 98° |
| 2026-05-05 02:09 | 34.61080 | -87.52669 | 36547 ft | 527 kts | 98° |
| 2026-05-05 02:09 | 34.60217 | -87.48354 | 36846 ft | 527 kts | 98° |
| 2026-05-05 02:09 | 34.59361 | -87.44078 | 36960 ft | 528 kts | 98° |
| 2026-05-05 02:09 | 34.58497 | -87.39756 | 36975 ft | 527 kts | 98° |
| 2026-05-05 02:10 | 34.56774 | -87.31123 | 36974 ft | 526 kts | 98° |
| 2026-05-05 02:10 | 34.55061 | -87.22495 | 36985 ft | 525 kts | 98° |
| 2026-05-05 02:11 | 34.53358 | -87.13891 | 36995 ft | 524 kts | 98° |
| 2026-05-05 02:11 | 34.51669 | -87.05296 | 36998 ft | 524 kts | 98° |
| 2026-05-05 02:12 | 34.49361 | -86.93471 | 37014 ft | 523 kts | 98° |
| 2026-05-05 02:13 | 34.47695 | -86.84887 | 37019 ft | 523 kts | 98° |
| 2026-05-05 02:13 | 34.46036 | -86.76305 | 37021 ft | 522 kts | 98° |
| 2026-05-05 02:14 | 34.44398 | -86.67793 | 37023 ft | 522 kts | 98° |
| 2026-05-05 02:14 | 34.42763 | -86.59230 | 37024 ft | 521 kts | 98° |
| 2026-05-05 02:15 | 34.41095 | -86.50692 | 37027 ft | 524 kts | 104° |
| 2026-05-05 02:15 | 34.39635 | -86.46628 | 37020 ft | 530 kts | 120° |
| 2026-05-05 02:15 | 34.37420 | -86.43068 | 37017 ft | 529 kts | 136° |
| 2026-05-05 02:15 | 34.34596 | -86.40260 | 37005 ft | 523 kts | 153° |
| 2026-05-05 02:16 | 34.31483 | -86.37988 | 37003 ft | 524 kts | 150° |
| 2026-05-05 02:16 | 34.25855 | -86.32297 | 37004 ft | 529 kts | 140° |
| 2026-05-05 02:17 | 34.20304 | -86.26294 | 37025 ft | 542 kts | 140° |
| 2026-05-05 02:17 | 34.14629 | -86.20140 | 37026 ft | 554 kts | 140° |
| 2026-05-05 02:18 | 34.08873 | -86.13910 | 37023 ft | 557 kts | 140° |
| 2026-05-05 02:18 | 34.03081 | -86.07661 | 37018 ft | 558 kts | 140° |
| 2026-05-05 02:19 | 33.97326 | -86.01480 | 37017 ft | 558 kts | 140° |
| 2026-05-05 02:19 | 33.91534 | -85.95262 | 37024 ft | 558 kts | 140° |
| 2026-05-05 02:20 | 33.85730 | -85.89036 | 37038 ft | 559 kts | 140° |
| 2026-05-05 02:20 | 33.79917 | -85.82818 | 37050 ft | 559 kts | 140° |
| 2026-05-05 02:21 | 33.74103 | -85.76614 | 37053 ft | 559 kts | 140° |
| 2026-05-05 02:21 | 33.68282 | -85.70406 | 37049 ft | 559 kts | 140° |
| 2026-05-05 02:22 | 33.62459 | -85.64202 | 37055 ft | 559 kts | 140° |
| 2026-05-05 02:22 | 33.56634 | -85.58007 | 37060 ft | 559 kts | 140° |
| 2026-05-05 02:23 | 33.50801 | -85.51834 | 37061 ft | 559 kts | 140° |
| 2026-05-05 02:23 | 33.44971 | -85.45679 | 37074 ft | 559 kts | 140° |
| 2026-05-05 02:24 | 33.39135 | -85.39510 | 37076 ft | 559 kts | 140° |
| 2026-05-05 02:24 | 33.34290 | -85.34399 | 37072 ft | 558 kts | 141° |
| 2026-05-05 02:25 | 33.28458 | -85.28272 | 37063 ft | 558 kts | 141° |
| 2026-05-05 02:25 | 33.21680 | -85.21173 | 37072 ft | 558 kts | 141° |
| 2026-05-05 02:26 | 33.16792 | -85.16049 | 37080 ft | 557 kts | 141° |
| 2026-05-05 02:26 | 33.10971 | -85.09940 | 37088 ft | 557 kts | 141° |
| 2026-05-05 02:27 | 33.05176 | -85.03878 | 37092 ft | 557 kts | 141° |
| 2026-05-05 02:27 | 32.99304 | -84.97754 | 37094 ft | 557 kts | 141° |
| 2026-05-05 02:28 | 32.93496 | -84.91710 | 37095 ft | 557 kts | 141° |
| 2026-05-05 02:28 | 32.87658 | -84.85649 | 37093 ft | 557 kts | 141° |
| 2026-05-05 02:29 | 32.81812 | -84.79589 | 37093 ft | 557 kts | 141° |
| 2026-05-05 02:29 | 32.75968 | -84.73547 | 37091 ft | 556 kts | 141° |
| 2026-05-05 02:30 | 32.70125 | -84.67521 | 37078 ft | 556 kts | 141° |
| 2026-05-05 02:30 | 32.64287 | -84.61495 | 37076 ft | 556 kts | 141° |
| 2026-05-05 02:31 | 32.58442 | -84.55474 | 37071 ft | 556 kts | 141° |
| 2026-05-05 02:31 | 32.52602 | -84.49460 | 37066 ft | 556 kts | 141° |
| 2026-05-05 02:32 | 32.46758 | -84.43460 | 37065 ft | 556 kts | 141° |
| 2026-05-05 02:32 | 32.40912 | -84.37480 | 37071 ft | 555 kts | 141° |
| 2026-05-05 02:33 | 32.35060 | -84.31506 | 37074 ft | 555 kts | 141° |
| 2026-05-05 02:33 | 32.29221 | -84.25534 | 37075 ft | 555 kts | 141° |
| 2026-05-05 02:34 | 32.23375 | -84.19570 | 37073 ft | 555 kts | 142° |
| 2026-05-05 02:34 | 32.17523 | -84.13626 | 37075 ft | 554 kts | 142° |
| 2026-05-05 02:35 | 32.11714 | -84.07730 | 37073 ft | 554 kts | 142° |
| 2026-05-05 02:35 | 32.05866 | -84.01812 | 37075 ft | 554 kts | 142° |
| 2026-05-05 02:36 | 32.00025 | -83.95902 | 37083 ft | 553 kts | 142° |
| 2026-05-05 02:36 | 31.94179 | -83.89996 | 37086 ft | 553 kts | 142° |
| 2026-05-05 02:37 | 31.88329 | -83.84105 | 37085 ft | 553 kts | 142° |
| 2026-05-05 02:37 | 31.82488 | -83.78232 | 37086 ft | 553 kts | 142° |
| 2026-05-05 02:38 | 31.76649 | -83.72356 | 37089 ft | 552 kts | 142° |
| 2026-05-05 02:38 | 31.70847 | -83.66528 | 37093 ft | 552 kts | 142° |
| 2026-05-05 02:39 | 31.65006 | -83.60681 | 37095 ft | 551 kts | 142° |
| 2026-05-05 02:39 | 31.59164 | -83.54856 | 37099 ft | 551 kts | 142° |
| 2026-05-05 02:40 | 31.53321 | -83.49040 | 37116 ft | 550 kts | 142° |
| 2026-05-05 02:40 | 31.47485 | -83.43225 | 37119 ft | 550 kts | 142° |
| 2026-05-05 02:41 | 31.41658 | -83.37423 | 37114 ft | 549 kts | 142° |
| 2026-05-05 02:41 | 31.35832 | -83.31636 | 37111 ft | 549 kts | 142° |
| 2026-05-05 02:42 | 31.30003 | -83.25858 | 37102 ft | 548 kts | 142° |
| 2026-05-05 02:42 | 31.24179 | -83.20100 | 37087 ft | 548 kts | 143° |
| 2026-05-05 02:43 | 31.18402 | -83.14393 | 37091 ft | 547 kts | 143° |
| 2026-05-05 02:43 | 31.12586 | -83.08659 | 37087 ft | 547 kts | 143° |
| 2026-05-05 02:44 | 31.06773 | -83.02935 | 37090 ft | 546 kts | 143° |
| 2026-05-05 02:44 | 31.00954 | -82.97225 | 37114 ft | 546 kts | 143° |
| 2026-05-05 02:45 | 30.95155 | -82.91532 | 37124 ft | 545 kts | 143° |
| 2026-05-05 02:45 | 30.89386 | -82.85887 | 37128 ft | 545 kts | 143° |
| 2026-05-05 02:46 | 30.83496 | -82.80369 | 37119 ft | 543 kts | 146° |
| 2026-05-05 02:46 | 30.77499 | -82.75051 | 37119 ft | 541 kts | 147° |
| 2026-05-05 02:47 | 30.71507 | -82.69749 | 37125 ft | 541 kts | 146° |
| 2026-05-05 02:47 | 30.65551 | -82.64395 | 37135 ft | 541 kts | 146° |
| 2026-05-05 02:48 | 30.59609 | -82.59027 | 37137 ft | 540 kts | 146° |
| 2026-05-05 02:48 | 30.53679 | -82.53683 | 37141 ft | 539 kts | 146° |
| 2026-05-05 02:49 | 30.47745 | -82.48367 | 37141 ft | 539 kts | 146° |
| 2026-05-05 02:49 | 30.41807 | -82.43064 | 37138 ft | 538 kts | 146° |
| 2026-05-05 02:50 | 30.35868 | -82.37769 | 37122 ft | 538 kts | 146° |
| 2026-05-05 02:50 | 30.29979 | -82.32514 | 37121 ft | 537 kts | 146° |
| 2026-05-05 02:51 | 30.24046 | -82.27256 | 37120 ft | 535 kts | 150° |
| 2026-05-05 02:51 | 30.17515 | -82.23474 | 37115 ft | 518 kts | 169° |
| 2026-05-05 02:52 | 30.10569 | -82.21809 | 37115 ft | 508 kts | 178° |
| 2026-05-05 02:52 | 30.03596 | -82.20443 | 37119 ft | 508 kts | 178° |
| 2026-05-05 02:53 | 29.96622 | -82.19056 | 37121 ft | 508 kts | 178° |
| 2026-05-05 02:53 | 29.89657 | -82.17676 | 37127 ft | 508 kts | 178° |
| 2026-05-05 02:54 | 29.82690 | -82.16287 | 37127 ft | 508 kts | 178° |
| 2026-05-05 02:54 | 29.75775 | -82.14901 | 37128 ft | 508 kts | 178° |
| 2026-05-05 02:55 | 29.68805 | -82.13513 | 37125 ft | 508 kts | 178° |
| 2026-05-05 02:55 | 29.61793 | -82.12121 | 37124 ft | 508 kts | 178° |
| 2026-05-05 02:56 | 29.54871 | -82.10748 | 37123 ft | 508 kts | 178° |
| 2026-05-05 02:56 | 29.47902 | -82.09368 | 37116 ft | 508 kts | 179° |
| 2026-05-05 02:57 | 29.40930 | -82.07986 | 37115 ft | 508 kts | 179° |
| 2026-05-05 02:57 | 29.33950 | -82.06608 | 37118 ft | 508 kts | 179° |
| 2026-05-05 02:57 | 29.30488 | -82.05644 | 37113 ft | 521 kts | 166° |
| 2026-05-05 02:58 | 29.27190 | -82.03803 | 37116 ft | 530 kts | 158° |
| 2026-05-05 02:58 | 29.20714 | -81.99735 | 37110 ft | 531 kts | 158° |
| 2026-05-05 02:59 | 29.14250 | -81.95616 | 37103 ft | 532 kts | 158° |
| 2026-05-05 02:59 | 29.07771 | -81.91487 | 36923 ft | 535 kts | 154° |
| 2026-05-05 02:59 | 29.04784 | -81.88913 | 35758 ft | 555 kts | 143° |
| 2026-05-05 03:00 | 29.01866 | -81.85934 | 35220 ft | 549 kts | 140° |
| 2026-05-05 03:00 | 28.99173 | -81.83002 | 35100 ft | 536 kts | 138° |
| 2026-05-05 03:00 | 28.96800 | -81.79766 | 34923 ft | 529 kts | 126° |
| 2026-05-05 03:00 | 28.94670 | -81.76372 | 34579 ft | 523 kts | 127° |
| 2026-05-05 03:01 | 28.92506 | -81.73048 | 34197 ft | 519 kts | 128° |
| 2026-05-05 03:01 | 28.90314 | -81.69787 | 33744 ft | 515 kts | 129° |
| 2026-05-05 03:01 | 28.88108 | -81.66579 | 33321 ft | 510 kts | 130° |
| 2026-05-05 03:01 | 28.85921 | -81.63416 | 32915 ft | 505 kts | 130° |
| 2026-05-05 03:02 | 28.83768 | -81.60287 | 32397 ft | 497 kts | 130° |
| 2026-05-05 03:02 | 28.81663 | -81.57204 | 31722 ft | 489 kts | 130° |
| 2026-05-05 03:02 | 28.79408 | -81.54389 | 31076 ft | 471 kts | 148° |
| 2026-05-05 03:02 | 28.76698 | -81.52443 | 30432 ft | 455 kts | 158° |
| 2026-05-05 03:03 | 28.73939 | -81.50724 | 29709 ft | 447 kts | 159° |
| 2026-05-05 03:03 | 28.71211 | -81.49074 | 28983 ft | 441 kts | 159° |
| 2026-05-05 03:03 | 28.68514 | -81.47476 | 28286 ft | 434 kts | 159° |
| 2026-05-05 03:03 | 28.65849 | -81.45911 | 27632 ft | 428 kts | 159° |
| 2026-05-05 03:04 | 28.63213 | -81.44360 | 26990 ft | 423 kts | 159° |
| 2026-05-05 03:04 | 28.60621 | -81.43021 | 26572 ft | 400 kts | 172° |
| 2026-05-05 03:04 | 28.57998 | -81.42508 | 26364 ft | 372 kts | 181° |
| 2026-05-05 03:04 | 28.55503 | -81.42394 | 26108 ft | 343 kts | 196° |
| 2026-05-05 03:05 | 28.53278 | -81.43053 | 25565 ft | 322 kts | 214° |
| 2026-05-05 03:05 | 28.51429 | -81.44347 | 24979 ft | 306 kts | 228° |
| 2026-05-05 03:05 | 28.50010 | -81.46085 | 24396 ft | 295 kts | 242° |
| 2026-05-05 03:05 | 28.49048 | -81.48104 | 23817 ft | 287 kts | 254° |
| 2026-05-05 03:06 | 28.48564 | -81.50271 | 23165 ft | 281 kts | 266° |
| 2026-05-05 03:06 | 28.48569 | -81.52450 | 22755 ft | 270 kts | 278° |
| 2026-05-05 03:06 | 28.49001 | -81.54511 | 22241 ft | 267 kts | 290° |
| 2026-05-05 03:06 | 28.49853 | -81.56396 | 21858 ft | 270 kts | 302° |
| 2026-05-05 03:07 | 28.51082 | -81.58015 | 21606 ft | 272 kts | 314° |
| 2026-05-05 03:07 | 28.52624 | -81.59282 | 21354 ft | 277 kts | 326° |
| 2026-05-05 03:07 | 28.54437 | -81.60109 | 21107 ft | 284 kts | 339° |
| 2026-05-05 03:07 | 28.56397 | -81.60532 | 20864 ft | 288 kts | 345° |
| 2026-05-05 03:08 | 28.58389 | -81.60779 | 20622 ft | 289 kts | 348° |
| 2026-05-05 03:08 | 28.60392 | -81.60951 | 20376 ft | 288 kts | 349° |
| 2026-05-05 03:08 | 28.62396 | -81.61101 | 20139 ft | 288 kts | 349° |
| 2026-05-05 03:08 | 28.64392 | -81.61253 | 19885 ft | 291 kts | 349° |
| 2026-05-05 03:09 | 28.66465 | -81.61417 | 19356 ft | 305 kts | 353° |
| 2026-05-05 03:09 | 28.68618 | -81.61160 | 18847 ft | 319 kts | 9° |
| 2026-05-05 03:09 | 28.70725 | -81.60208 | 18337 ft | 334 kts | 26° |
| 2026-05-05 03:09 | 28.72562 | -81.58532 | 17754 ft | 346 kts | 45° |
| 2026-05-05 03:10 | 28.73904 | -81.56230 | 17194 ft | 354 kts | 65° |
| 2026-05-05 03:10 | 28.74575 | -81.53557 | 16641 ft | 359 kts | 83° |
| 2026-05-05 03:10 | 28.74487 | -81.50676 | 16085 ft | 361 kts | 103° |
| 2026-05-05 03:10 | 28.73643 | -81.48044 | 15553 ft | 359 kts | 122° |
| 2026-05-05 03:11 | 28.72114 | -81.45820 | 15043 ft | 357 kts | 140° |
| 2026-05-05 03:11 | 28.70070 | -81.44258 | 14514 ft | 353 kts | 158° |
| 2026-05-05 03:11 | 28.67734 | -81.43462 | 14000 ft | 350 kts | 172° |
| 2026-05-05 03:11 | 28.65332 | -81.43064 | 13445 ft | 349 kts | 175° |
| 2026-05-05 03:12 | 28.62912 | -81.42806 | 12865 ft | 349 kts | 177° |
| 2026-05-05 03:12 | 28.60494 | -81.42614 | 12322 ft | 348 kts | 178° |
| 2026-05-05 03:12 | 28.58083 | -81.42437 | 11776 ft | 347 kts | 178° |
| 2026-05-05 03:12 | 28.55678 | -81.42432 | 11271 ft | 344 kts | 191° |
| 2026-05-05 03:13 | 28.53457 | -81.43239 | 11102 ft | 328 kts | 209° |
| 2026-05-05 03:13 | 28.51671 | -81.44707 | 11108 ft | 309 kts | 226° |
| 2026-05-05 03:13 | 28.50779 | -81.45929 | 11111 ft | 298 kts | 238° |
| 2026-05-05 03:13 | 28.49910 | -81.47989 | 11106 ft | 282 kts | 254° |
| 2026-05-05 03:14 | 28.49606 | -81.50147 | 10983 ft | 272 kts | 270° |
| 2026-05-05 03:14 | 28.49834 | -81.52244 | 10857 ft | 264 kts | 285° |
| 2026-05-05 03:14 | 28.50520 | -81.54137 | 10689 ft | 260 kts | 300° |
| 2026-05-05 03:14 | 28.51624 | -81.55779 | 10451 ft | 262 kts | 314° |
| 2026-05-05 03:15 | 28.53071 | -81.57033 | 10217 ft | 263 kts | 329° |
| 2026-05-05 03:15 | 28.54763 | -81.57817 | 10023 ft | 263 kts | 344° |
| 2026-05-05 03:15 | 28.56573 | -81.58197 | 9900 ft | 266 kts | 351° |
| 2026-05-05 03:15 | 28.58425 | -81.58142 | 9765 ft | 268 kts | 9° |
| 2026-05-05 03:16 | 28.60200 | -81.57488 | 9634 ft | 270 kts | 25° |
| 2026-05-05 03:16 | 28.61786 | -81.56325 | 9505 ft | 272 kts | 39° |
| 2026-05-05 03:16 | 28.63055 | -81.54735 | 9380 ft | 273 kts | 56° |
| 2026-05-05 03:16 | 28.63897 | -81.52805 | 9253 ft | 273 kts | 72° |
| 2026-05-05 03:17 | 28.64237 | -81.50686 | 9124 ft | 273 kts | 89° |
| 2026-05-05 03:17 | 28.64061 | -81.48545 | 8997 ft | 272 kts | 105° |
| 2026-05-05 03:17 | 28.63409 | -81.46572 | 8877 ft | 270 kts | 121° |
| 2026-05-05 03:17 | 28.62308 | -81.44863 | 8738 ft | 267 kts | 137° |
| 2026-05-05 03:18 | 28.60857 | -81.43564 | 8624 ft | 264 kts | 152° |
| 2026-05-05 03:18 | 28.59179 | -81.42758 | 8499 ft | 261 kts | 167° |
| 2026-05-05 03:18 | 28.57399 | -81.42373 | 8370 ft | 260 kts | 175° |
| 2026-05-05 03:18 | 28.55624 | -81.42235 | 8250 ft | 252 kts | 181° |
| 2026-05-05 03:19 | 28.52155 | -81.42293 | 8001 ft | 248 kts | 183° |
| 2026-05-05 03:19 | 28.50432 | -81.42337 | 7866 ft | 247 kts | 183° |
| 2026-05-05 03:19 | 28.48719 | -81.42371 | 7623 ft | 246 kts | 183° |
| 2026-05-05 03:20 | 28.47008 | -81.42395 | 7322 ft | 245 kts | 182° |
| 2026-05-05 03:20 | 28.45304 | -81.42407 | 7022 ft | 245 kts | 182° |
| 2026-05-05 03:20 | 28.43598 | -81.42411 | 6717 ft | 245 kts | 182° |
| 2026-05-05 03:20 | 28.41890 | -81.42414 | 6421 ft | 244 kts | 182° |
| 2026-05-05 03:21 | 28.40194 | -81.42416 | 6095 ft | 245 kts | 182° |
| 2026-05-05 03:21 | 28.38499 | -81.42417 | 5800 ft | 243 kts | 181° |
| 2026-05-05 03:21 | 28.36801 | -81.42417 | 5477 ft | 243 kts | 181° |
| 2026-05-05 03:21 | 28.35112 | -81.42416 | 5190 ft | 241 kts | 181° |
| 2026-05-05 03:22 | 28.33470 | -81.42407 | 5114 ft | 230 kts | 180° |
| 2026-05-05 03:22 | 28.31891 | -81.42379 | 5112 ft | 225 kts | 180° |
| 2026-05-05 03:22 | 28.30333 | -81.42345 | 5113 ft | 224 kts | 180° |
| 2026-05-05 03:22 | 28.28775 | -81.42311 | 5115 ft | 223 kts | 180° |
| 2026-05-05 03:23 | 28.27225 | -81.42282 | 5117 ft | 223 kts | 180° |
| 2026-05-05 03:23 | 28.25672 | -81.42298 | 5114 ft | 223 kts | 189° |
| 2026-05-05 03:23 | 28.24243 | -81.42922 | 5116 ft | 222 kts | 217° |
| 2026-05-05 03:23 | 28.23258 | -81.44236 | 5114 ft | 221 kts | 245° |
| 2026-05-05 03:24 | 28.22946 | -81.45911 | 5114 ft | 222 kts | 273° |
| 2026-05-05 03:24 | 28.23400 | -81.47597 | 5117 ft | 224 kts | 303° |
| 2026-05-05 03:24 | 28.24509 | -81.48795 | 5116 ft | 226 kts | 332° |
| 2026-05-05 03:24 | 28.26020 | -81.49250 | 5116 ft | 228 kts | 1° |
| 2026-05-05 03:25 | 28.27544 | -81.48804 | 5116 ft | 229 kts | 31° |
| 2026-05-05 03:25 | 28.28826 | -81.47724 | 5118 ft | 230 kts | 38° |
| 2026-05-05 03:25 | 28.30084 | -81.46598 | 5117 ft | 231 kts | 40° |
| 2026-05-05 03:25 | 28.31089 | -81.45198 | 5114 ft | 230 kts | 66° |
| 2026-05-05 03:26 | 28.31407 | -81.43443 | 5113 ft | 229 kts | 95° |
| 2026-05-05 03:26 | 28.30974 | -81.41735 | 5117 ft | 227 kts | 119° |
| 2026-05-05 03:26 | 28.30235 | -81.40141 | 5120 ft | 226 kts | 118° |
| 2026-05-05 03:26 | 28.29532 | -81.38612 | 5113 ft | 213 kts | 118° |
| 2026-05-05 03:27 | 28.28857 | -81.37137 | 5111 ft | 210 kts | 118° |
| 2026-05-05 03:27 | 28.28206 | -81.35658 | 5110 ft | 209 kts | 111° |
| 2026-05-05 03:27 | 28.28109 | -81.34082 | 5141 ft | 194 kts | 76° |
| 2026-05-05 03:27 | 28.28724 | -81.32837 | 5109 ft | 172 kts | 43° |
| 2026-05-05 03:28 | 28.29697 | -81.32183 | 5095 ft | 157 kts | 14° |
| 2026-05-05 03:28 | 28.30714 | -81.32087 | 4940 ft | 139 kts | 38° |
| 2026-05-05 03:28 | 28.31477 | -81.31705 | 2139 ft | 0 kts | 66° |